createdAt,value
2022-09-25T00:02:12.681Z,3.03
2022-09-25T00:07:16.291Z,2.60
2022-09-25T00:12:19.799Z,2.90
2022-09-25T00:17:26.012Z,3.33
2022-09-25T00:22:30.187Z,3.63
2022-09-25T00:27:33.680Z,3.07
2022-09-25T00:32:38.828Z,4.03
2022-09-25T00:37:42.338Z,3.40
2022-09-25T00:42:46.002Z,3.63
2022-09-25T00:47:58.206Z,3.57
2022-09-25T00:53:06.374Z,4.00
2022-09-25T00:58:10.756Z,4.27
2022-09-25T01:03:17.350Z,3.90
2022-09-25T01:08:24.387Z,3.63
2022-09-25T01:13:29.742Z,3.97
2022-09-25T01:18:45.678Z,4.37
2022-09-25T01:24:31.959Z,4.00
2022-09-25T01:29:45.670Z,3.90
2022-09-25T01:34:57.378Z,3.30
2022-09-25T01:40:08.757Z,3.63
2022-09-25T01:45:20.587Z,3.97
2022-09-25T01:50:29.910Z,3.40
2022-09-25T01:55:38.406Z,2.97
2022-09-25T02:00:50.833Z,3.43
2022-09-25T02:05:57.182Z,3.07
2022-09-25T02:11:02.759Z,3.13
2022-09-25T02:16:12.598Z,3.37
2022-09-25T02:21:23.945Z,2.87
2022-09-25T02:26:29.127Z,3.17
2022-09-25T02:31:40.460Z,3.00
2022-09-25T02:36:44.881Z,3.40
2022-09-25T02:42:04.694Z,3.33
2022-09-25T02:47:23.294Z,3.73
2022-09-25T02:52:34.766Z,3.53
2022-09-25T02:57:46.466Z,3.37
2022-09-25T03:02:54.960Z,3.30
2022-09-25T03:08:15.870Z,2.97
2022-09-25T03:13:21.200Z,3.40
2022-09-25T03:18:26.425Z,3.03
2022-09-25T03:23:29.986Z,2.87
2022-09-25T03:28:33.552Z,3.33
2022-09-25T03:33:40.240Z,2.63
2022-09-25T03:38:45.803Z,3.03
2022-09-25T03:43:51.829Z,2.87
2022-09-25T03:48:57.271Z,3.57
2022-09-25T03:54:00.807Z,2.33
2022-09-25T03:59:04.387Z,1.90
2022-09-25T04:04:09.227Z,2.10
2022-09-25T04:09:12.776Z,1.60
2022-09-25T04:14:16.449Z,1.43
2022-09-25T04:19:21.390Z,1.80
2022-09-25T04:24:42.370Z,1.90
2022-09-25T04:29:45.900Z,2.47
2022-09-25T04:34:50.741Z,1.87
2022-09-25T04:39:55.110Z,1.57
2022-09-25T04:44:59.106Z,1.23
2022-09-25T04:50:04.094Z,1.30
2022-09-25T04:55:08.097Z,1.00
2022-09-25T05:00:15.791Z,1.20
2022-09-25T05:05:20.996Z,0.93
2022-09-25T05:10:27.904Z,1.47
2022-09-25T05:15:32.852Z,1.53
2022-09-25T05:20:38.890Z,1.20
2022-09-25T05:25:42.436Z,1.67
2022-09-25T05:30:46.026Z,1.33
2022-09-25T05:35:50.921Z,1.43
2022-09-25T05:40:55.191Z,0.90
2022-09-25T05:45:59.765Z,0.87
2022-09-25T05:51:05.494Z,1.10
2022-09-25T05:56:08.993Z,0.90
2022-09-25T06:01:12.723Z,1.80
2022-09-25T06:06:17.743Z,1.17
2022-09-25T06:11:22.283Z,0.90
2022-09-25T06:16:26.029Z,1.20
2022-09-25T06:21:31.168Z,2.80
2022-09-25T06:26:35.320Z,1.70
2022-09-25T06:31:39.207Z,2.60
2022-09-25T06:36:44.153Z,1.03
2022-09-25T06:41:47.739Z,0.97
2022-09-25T06:46:57.410Z,2.23
2022-09-25T06:52:02.685Z,0.80
2022-09-25T06:57:06.214Z,0.80
2022-09-25T07:02:24.516Z,0.80
2022-09-25T07:07:31.549Z,1.10
2022-09-25T07:12:35.006Z,1.27
2022-09-25T07:17:38.616Z,0.97
2022-09-25T07:22:43.924Z,0.50
2022-09-25T07:27:47.406Z,0.60
2022-09-25T07:32:51.043Z,0.50
2022-09-25T07:37:58.463Z,1.20
2022-09-25T07:43:02.499Z,0.87
2022-09-25T07:48:06.247Z,0.80
2022-09-25T07:53:11.530Z,0.97
2022-09-25T07:58:16.186Z,0.57
2022-09-25T08:03:19.752Z,0.67
2022-09-25T08:08:24.656Z,0.50
2022-09-25T08:13:28.647Z,1.30
2022-09-25T08:18:32.294Z,1.80
2022-09-25T08:23:37.382Z,0.67
2022-09-25T08:28:40.915Z,1.97
2022-09-25T08:33:46.569Z,0.90
2022-09-25T08:38:52.915Z,1.53
2022-09-25T08:44:00.764Z,1.17
2022-09-25T08:49:06.180Z,1.07
2022-09-25T08:54:19.664Z,0.83
2022-09-25T08:59:28.569Z,1.10
2022-09-25T09:04:36.955Z,1.03
2022-09-25T09:09:45.909Z,0.30
2022-09-25T09:14:52.874Z,1.13
2022-09-25T09:20:00.314Z,0.97
2022-09-25T09:25:17.601Z,1.10
2022-09-25T09:30:28.003Z,0.47
2022-09-25T09:35:39.590Z,1.03
2022-09-25T09:41:12.178Z,0.73
2022-09-25T09:46:23.822Z,0.50
2022-09-25T09:51:32.426Z,0.60
2022-09-25T09:56:38.191Z,0.30
2022-09-25T10:01:45.129Z,0.93
2022-09-25T10:06:54.759Z,0.93
2022-09-25T10:12:04.902Z,0.63
2022-09-25T10:17:11.914Z,0.43
2022-09-25T10:22:18.177Z,0.50
2022-09-25T10:27:28.702Z,0.83
2022-09-25T10:32:34.662Z,0.87
2022-09-25T10:37:38.326Z,1.97
2022-09-25T10:42:44.247Z,1.37
2022-09-25T10:48:08.230Z,1.07
2022-09-25T10:53:28.289Z,0.57
2022-09-25T10:58:38.483Z,0.43
2022-09-25T11:03:55.085Z,0.77
2022-09-25T11:09:07.723Z,0.50
2022-09-25T11:14:23.472Z,0.40
2022-09-25T11:19:29.876Z,0.30
2022-09-25T11:24:42.758Z,0.33
2022-09-25T11:29:58.676Z,0.43
2022-09-25T11:35:23.236Z,0.67
2022-09-25T11:40:58.542Z,0.40
2022-09-25T11:46:08.291Z,0.43
2022-09-25T11:51:24.942Z,0.73
2022-09-25T11:56:36.096Z,0.60
2022-09-25T12:01:47.769Z,0.33
2022-09-25T12:07:17.608Z,0.30
2022-09-25T12:12:32.148Z,0.40
2022-09-25T12:17:43.174Z,0.40
2022-09-25T12:23:00.231Z,0.50
2022-09-25T12:28:13.562Z,1.37
2022-09-25T12:33:26.302Z,0.97
2022-09-25T12:38:38.084Z,0.27
2022-09-25T12:43:47.656Z,0.30
2022-09-25T12:48:57.631Z,0.23
2022-09-25T12:54:04.078Z,0.70
2022-09-25T12:59:14.693Z,0.30
2022-09-25T13:04:37.553Z,0.53
2022-09-25T13:09:44.805Z,0.40
2022-09-25T13:14:54.103Z,0.93
2022-09-25T13:20:40.983Z,1.50
2022-09-25T13:25:47.702Z,0.90
2022-09-25T13:31:04.381Z,0.50
2022-09-25T13:36:28.449Z,0.60
2022-09-25T13:41:34.017Z,1.03
2022-09-25T13:46:37.591Z,0.90
2022-09-25T13:51:46.229Z,1.23
2022-09-25T13:56:50.727Z,0.50
2022-09-25T14:02:00.932Z,0.30
2022-09-25T14:07:18.924Z,0.87
2022-09-25T14:12:28.968Z,0.30
2022-09-25T14:17:33.571Z,0.20
2022-09-25T14:22:44.436Z,0.37
2022-09-25T14:27:52.446Z,0.30
2022-09-25T14:33:13.032Z,0.20
2022-09-25T14:38:40.482Z,0.33
2022-09-25T14:43:56.738Z,0.40
2022-09-25T14:49:03.293Z,0.50
2022-09-25T14:54:12.462Z,0.20
2022-09-25T14:59:22.167Z,0.37
2022-09-25T15:04:32.983Z,0.37
2022-09-25T15:09:47.082Z,0.43
2022-09-25T15:15:01.695Z,0.47
2022-09-25T15:20:13.558Z,0.83
2022-09-25T15:25:25.133Z,0.20
2022-09-25T15:30:29.851Z,0.43
2022-09-25T15:35:33.357Z,0.77
2022-09-25T15:40:39.069Z,0.70
2022-09-25T15:45:46.167Z,0.57
2022-09-25T15:50:50.590Z,0.70
2022-09-25T15:56:06.358Z,0.40
2022-09-25T16:01:31.734Z,0.17
2022-09-25T16:06:43.207Z,0.73
2022-09-25T16:11:48.919Z,0.57
2022-09-25T16:16:52.616Z,0.30
2022-09-25T16:21:56.594Z,0.20
2022-09-25T16:27:02.994Z,0.40
2022-09-25T16:32:09.189Z,0.43
2022-09-25T16:37:21.887Z,0.40
2022-09-25T16:42:35.578Z,0.40
2022-09-25T16:47:43.504Z,0.53
2022-09-25T16:52:49.968Z,0.30
2022-09-25T16:57:56.543Z,0.20
2022-09-25T17:03:01.434Z,0.20
2022-09-25T17:08:17.568Z,0.93
2022-09-25T17:13:27.312Z,0.70
2022-09-25T17:18:31.060Z,0.50
2022-09-25T17:23:34.543Z,0.60
2022-09-25T17:28:39.400Z,0.50
2022-09-25T17:33:42.953Z,0.30
2022-09-25T17:38:46.475Z,0.50
2022-09-25T17:43:52.566Z,0.50
2022-09-25T17:48:56.951Z,0.90
2022-09-25T17:54:02.264Z,1.63
2022-09-25T17:59:08.990Z,1.40
2022-09-25T18:04:23.617Z,1.60
2022-09-25T18:09:27.110Z,1.03
2022-09-25T18:14:34.053Z,0.57
2022-09-25T18:19:55.227Z,0.43
2022-09-25T18:24:59.290Z,0.20
2022-09-25T18:30:04.909Z,0.93
2022-09-25T18:35:10.202Z,0.20
2022-09-25T18:40:16.035Z,0.40
2022-09-25T18:45:21.849Z,0.73
2022-09-25T18:50:25.772Z,0.30
2022-09-25T18:55:29.726Z,0.40
2022-09-25T19:00:35.053Z,0.30
2022-09-25T19:05:39.328Z,0.30
2022-09-25T19:10:43.434Z,0.30
2022-09-25T19:15:48.677Z,0.47
2022-09-25T19:20:54.736Z,0.30
2022-09-25T19:26:00.630Z,0.80
2022-09-25T19:31:08.185Z,0.30
2022-09-25T19:36:19.794Z,0.30
2022-09-25T19:41:27.569Z,1.07
2022-09-25T19:46:33.157Z,0.40
2022-09-25T19:51:37.767Z,0.10
2022-09-25T19:56:42.214Z,0.13
2022-09-25T20:01:47.330Z,0.53
2022-09-25T20:06:51.013Z,0.37
2022-09-25T20:11:54.997Z,0.30
2022-09-25T20:17:00.282Z,1.87
2022-09-25T20:22:03.993Z,0.40
2022-09-25T20:27:07.539Z,0.30
2022-09-25T20:32:12.474Z,0.20
2022-09-25T20:37:16.027Z,0.50
2022-09-25T20:42:19.615Z,0.53
2022-09-25T20:47:24.618Z,0.63
2022-09-25T20:52:28.611Z,0.40
2022-09-25T20:57:33.337Z,1.83
2022-09-25T21:02:38.322Z,1.90
2022-09-25T21:07:41.903Z,1.43
2022-09-25T21:12:45.820Z,6.53
2022-09-25T21:17:50.959Z,1.00
2022-09-25T21:22:55.172Z,1.00
2022-09-25T21:27:58.945Z,0.70
2022-09-25T21:33:03.864Z,1.03
2022-09-25T21:38:07.371Z,0.70
2022-09-25T21:43:14.092Z,1.10
2022-09-25T21:48:20.404Z,0.90
2022-09-25T21:53:25.104Z,0.60
2022-09-25T21:58:28.741Z,1.17
2022-09-25T22:03:34.119Z,0.80
2022-09-25T22:08:39.913Z,0.83
2022-09-25T22:13:46.096Z,0.57
2022-09-25T22:18:53.358Z,0.70
2022-09-25T22:23:57.603Z,0.50
2022-09-25T22:29:01.125Z,0.73
2022-09-25T22:34:07.910Z,0.97
2022-09-25T22:39:14.295Z,1.90
2022-09-25T22:44:18.557Z,0.57
2022-09-25T22:49:23.666Z,0.47
2022-09-25T22:54:27.211Z,0.93
2022-09-25T22:59:30.806Z,0.60
2022-09-25T23:04:35.702Z,0.50
2022-09-25T23:09:39.226Z,1.03
2022-09-25T23:14:42.800Z,0.40
2022-09-25T23:19:47.632Z,0.97
2022-09-25T23:24:51.178Z,0.47
2022-09-25T23:29:54.679Z,0.77
2022-09-25T23:34:59.494Z,1.40
2022-09-25T23:40:03.424Z,0.50
2022-09-25T23:45:08.227Z,0.60
2022-09-25T23:50:13.244Z,1.80
2022-09-25T23:55:16.983Z,0.93
